createdAt,value
2022-09-10T00:01:28.155Z,3.47
2022-09-10T00:03:55.462Z,3.65
2022-09-10T00:06:27.037Z,3.55
2022-09-10T00:11:32.239Z,3.45
2022-09-10T00:14:00.731Z,3.10
2022-09-10T00:16:29.328Z,3.45
2022-09-10T00:18:57.346Z,3.17
2022-09-10T00:21:24.204Z,2.90
2022-09-10T00:23:50.988Z,2.60
2022-09-10T00:26:30.038Z,2.30
2022-09-10T00:28:59.926Z,2.30
2022-09-10T00:31:27.713Z,2.15
2022-09-10T00:33:54.901Z,2.03
2022-09-10T00:36:36.960Z,2.10
2022-09-10T00:39:07.819Z,2.42
2022-09-10T00:41:40.415Z,2.67
2022-09-10T00:44:41.250Z,3.00
2022-09-10T00:47:17.187Z,3.20
2022-09-10T00:49:48.666Z,3.42
2022-09-10T00:52:19.163Z,4.25
2022-09-10T00:54:47.526Z,4.38
2022-09-10T00:57:20.479Z,4.95
2022-09-10T00:59:53.197Z,4.95
2022-09-10T01:02:23.003Z,4.85
2022-09-10T01:04:50.375Z,5.13
2022-09-10T01:07:17.961Z,5.18
2022-09-10T01:09:44.830Z,4.65
2022-09-10T01:12:49.180Z,4.63
2022-09-10T01:15:41.058Z,4.40
2022-09-10T01:21:00.111Z,5.22
2022-09-10T01:23:58.240Z,4.75
2022-09-10T01:27:02.831Z,4.10
2022-09-10T01:29:44.590Z,4.20
2022-09-10T01:35:06.508Z,3.42
2022-09-10T01:37:37.057Z,3.47
2022-09-10T01:40:05.550Z,3.42
2022-09-10T01:42:35.659Z,3.50
2022-09-10T01:45:02.469Z,2.97
2022-09-10T01:47:45.015Z,3.33
2022-09-10T01:50:35.496Z,3.20
2022-09-10T01:53:20.060Z,3.28
2022-09-10T01:55:46.914Z,2.60
2022-09-10T01:58:38.777Z,2.58
2022-09-10T02:01:16.917Z,2.90
2022-09-10T02:03:47.885Z,3.00
2022-09-10T02:06:19.442Z,3.08
2022-09-10T02:11:18.724Z,4.45
2022-09-10T02:13:45.583Z,3.60
2022-09-10T02:16:31.203Z,4.25
2022-09-10T02:19:01.947Z,4.90
2022-09-10T02:21:29.002Z,4.97
2022-09-10T02:24:00.712Z,4.72
2022-09-10T02:26:29.670Z,5.05
2022-09-10T02:28:56.474Z,4.97
2022-09-10T02:31:26.235Z,5.32
2022-09-10T02:33:54.614Z,5.53
2022-09-10T02:36:22.119Z,5.75
2022-09-10T02:38:48.859Z,5.72
2022-09-10T02:41:18.347Z,5.65
2022-09-10T02:43:47.273Z,5.60
2022-09-10T02:46:16.461Z,5.30
2022-09-10T02:48:43.187Z,5.65
2022-09-10T02:51:12.563Z,5.22
2022-09-10T02:53:42.884Z,5.53
2022-09-10T02:56:12.922Z,5.25
2022-09-10T02:58:44.882Z,5.45
2022-09-10T03:01:16.783Z,5.05
2022-09-10T03:03:48.812Z,5.00
2022-09-10T03:06:15.748Z,4.90
2022-09-10T03:08:45.234Z,5.38
2022-09-10T03:11:13.471Z,5.00
2022-09-10T03:13:40.460Z,5.05
2022-09-10T03:16:09.442Z,4.97
2022-09-10T03:18:36.371Z,5.43
2022-09-10T03:21:20.169Z,4.70
2022-09-10T03:23:49.402Z,5.40
2022-09-10T03:26:17.848Z,5.15
2022-09-10T03:28:47.616Z,5.25
2022-09-10T03:31:18.123Z,4.85
2022-09-10T03:33:46.140Z,4.93
2022-09-10T03:36:16.104Z,5.50
2022-09-10T03:38:43.145Z,5.63
2022-09-10T03:41:09.961Z,6.00
2022-09-10T03:43:37.034Z,6.50
2022-09-10T03:46:04.130Z,6.00
2022-09-10T03:48:30.982Z,6.57
2022-09-10T03:51:00.079Z,6.75
2022-09-10T03:53:26.824Z,6.88
2022-09-10T03:55:56.336Z,7.07
2022-09-10T03:58:25.424Z,7.20
2022-09-10T04:00:52.847Z,7.72
2022-09-10T04:03:20.243Z,7.50
2022-09-10T04:05:50.598Z,8.07
2022-09-10T04:08:19.408Z,8.52
2022-09-10T04:10:49.438Z,8.63
2022-09-10T04:13:16.209Z,9.25
2022-09-10T04:15:45.988Z,9.95
2022-09-10T04:18:12.998Z,9.48
2022-09-10T04:20:42.218Z,8.68
2022-09-10T04:23:11.427Z,9.23
2022-09-10T04:25:40.494Z,9.35
2022-09-10T04:28:13.123Z,10.45
2022-09-10T04:30:44.549Z,10.23
2022-09-10T04:33:11.703Z,11.10
2022-09-10T04:35:39.602Z,10.93
2022-09-10T04:38:07.210Z,10.85
2022-09-10T04:40:39.113Z,11.07
2022-09-10T04:43:08.801Z,11.57
2022-09-10T04:45:35.784Z,12.23
2022-09-10T04:48:06.888Z,10.85
2022-09-10T04:50:33.825Z,11.98
2022-09-10T04:53:03.400Z,11.02
2022-09-10T04:55:31.819Z,12.25
2022-09-10T04:58:00.865Z,11.90
2022-09-10T05:00:29.881Z,12.25
2022-09-10T05:02:56.602Z,11.68
2022-09-10T05:05:23.520Z,11.43
2022-09-10T05:07:50.292Z,11.40
2022-09-10T05:10:21.434Z,11.63
2022-09-10T05:12:50.331Z,10.30
2022-09-10T05:15:17.155Z,11.10
2022-09-10T05:17:44.121Z,11.20
2022-09-10T05:20:13.845Z,11.18
2022-09-10T05:22:43.139Z,11.45
2022-09-10T05:25:12.335Z,12.30
2022-09-10T05:27:41.549Z,10.98
2022-09-10T05:30:12.063Z,11.98
2022-09-10T05:32:41.811Z,11.32
2022-09-10T05:35:12.266Z,9.65
2022-09-10T05:37:41.159Z,12.35
2022-09-10T05:40:09.742Z,12.05
2022-09-10T05:42:36.522Z,11.05
2022-09-10T05:45:05.842Z,11.02
2022-09-10T05:47:33.326Z,10.70
2022-09-10T05:50:00.046Z,11.13
2022-09-10T05:52:26.810Z,10.27
2022-09-10T05:54:56.606Z,9.77
2022-09-10T05:57:26.067Z,10.70
2022-09-10T05:59:55.288Z,9.55
2022-09-10T06:02:24.641Z,8.50
2022-09-10T06:04:53.728Z,8.50
2022-09-10T06:07:22.567Z,8.35
2022-09-10T06:09:49.245Z,7.60
2022-09-10T06:12:18.077Z,7.03
2022-09-10T06:14:47.351Z,5.95
2022-09-10T06:17:14.135Z,5.75
2022-09-10T06:19:40.952Z,4.78
2022-09-10T06:22:10.413Z,4.60
2022-09-10T06:24:40.368Z,4.00
2022-09-10T06:27:07.098Z,3.28
2022-09-10T06:29:36.441Z,3.50
2022-09-10T06:32:06.140Z,3.47
2022-09-10T06:34:35.868Z,2.95
2022-09-10T06:37:04.149Z,3.03
2022-09-10T06:39:33.987Z,3.03
2022-09-10T06:42:01.167Z,3.00
2022-09-10T06:44:30.561Z,2.40
2022-09-10T06:49:47.319Z,2.58
2022-09-10T06:52:14.011Z,2.13
2022-09-10T06:54:40.914Z,2.80
2022-09-10T06:57:10.251Z,2.92
2022-09-10T06:59:39.474Z,2.53
2022-09-10T07:02:06.293Z,2.38
2022-09-10T07:04:33.278Z,1.90
2022-09-10T07:07:00.728Z,2.15
2022-09-10T07:09:27.646Z,2.22
2022-09-10T07:11:54.510Z,2.00
2022-09-10T07:14:21.408Z,2.15
2022-09-10T07:16:50.274Z,1.58
2022-09-10T07:19:17.726Z,1.42
2022-09-10T07:21:47.279Z,1.10
2022-09-10T07:24:16.686Z,1.30
2022-09-10T07:26:43.711Z,1.33
2022-09-10T07:29:12.887Z,1.40
2022-09-10T07:31:41.556Z,1.58
2022-09-10T07:34:11.619Z,1.42
2022-09-10T07:36:38.301Z,1.20
2022-09-10T07:39:05.071Z,1.40
2022-09-10T07:41:34.417Z,1.40
2022-09-10T07:44:03.802Z,1.63
2022-09-10T07:46:33.382Z,2.08
2022-09-10T07:49:00.840Z,2.42
2022-09-10T07:51:30.320Z,3.65
2022-09-10T07:53:59.207Z,4.57
2022-09-10T07:56:26.361Z,5.45
2022-09-10T07:58:54.114Z,7.47
2022-09-10T08:01:24.240Z,8.63
2022-09-10T08:03:59.465Z,10.98
2022-09-10T08:06:26.385Z,13.50
2022-09-10T08:08:53.119Z,14.40
2022-09-10T08:11:21.352Z,14.27
2022-09-10T08:13:53.017Z,16.48
2022-09-10T08:16:25.359Z,16.23
2022-09-10T08:18:55.760Z,15.73
2022-09-10T08:21:25.900Z,16.58
2022-09-10T08:23:54.392Z,16.45
2022-09-10T08:26:24.327Z,15.13
2022-09-10T08:28:55.923Z,13.52
2022-09-10T08:31:26.486Z,14.30
2022-09-10T08:33:54.870Z,13.10
2022-09-10T08:36:23.232Z,13.10
2022-09-10T08:38:50.785Z,12.77
2022-09-10T08:41:39.570Z,11.77
2022-09-10T08:44:27.709Z,10.63
2022-09-10T08:47:00.535Z,6.15
2022-09-10T08:49:50.353Z,6.15
2022-09-10T08:52:42.111Z,5.50
2022-09-10T08:58:03.316Z,5.30
2022-09-10T09:00:34.174Z,4.65
2022-09-10T09:03:27.604Z,4.32
2022-09-10T09:06:00.700Z,3.88
2022-09-10T09:08:38.977Z,4.25
2022-09-10T09:11:19.081Z,4.90
2022-09-10T09:13:53.010Z,4.35
2022-09-10T09:16:38.698Z,4.45
2022-09-10T09:19:14.777Z,5.80
2022-09-10T09:21:51.039Z,5.55
2022-09-10T09:24:45.666Z,5.50
2022-09-10T09:27:19.756Z,7.88
2022-09-10T09:30:18.987Z,8.15
2022-09-10T09:32:47.289Z,6.82
2022-09-10T09:35:42.448Z,6.32
2022-09-10T09:38:26.790Z,5.70
2022-09-10T09:41:00.382Z,4.80
2022-09-10T09:43:38.684Z,5.50
2022-09-10T09:46:16.303Z,5.38
2022-09-10T09:48:44.679Z,4.78
2022-09-10T09:51:15.359Z,4.03
2022-09-10T09:53:48.400Z,3.97
2022-09-10T09:56:35.925Z,3.83
2022-09-10T09:59:28.204Z,3.67
2022-09-10T10:02:01.035Z,3.28
2022-09-10T10:04:33.781Z,3.20
2022-09-10T10:07:02.038Z,3.00
2022-09-10T10:09:40.119Z,3.42
2022-09-10T10:12:08.884Z,3.33
2022-09-10T10:14:41.960Z,3.90
2022-09-10T10:17:25.263Z,4.22
2022-09-10T10:20:10.452Z,3.95
2022-09-10T10:22:41.259Z,5.45
2022-09-10T10:25:36.549Z,4.63
2022-09-10T10:28:04.186Z,5.60
2022-09-10T10:30:35.690Z,5.10
2022-09-10T10:35:39.156Z,5.95
2022-09-10T10:38:25.241Z,5.70
2022-09-10T10:41:13.453Z,4.43
2022-09-10T10:44:09.741Z,5.25
2022-09-10T10:46:53.927Z,4.20
2022-09-10T10:49:49.861Z,3.75
2022-09-10T10:52:28.359Z,3.55
2022-09-10T10:55:03.071Z,3.08
2022-09-10T10:57:50.801Z,3.08
2022-09-10T11:00:20.306Z,3.40
2022-09-10T11:02:52.735Z,3.22
2022-09-10T11:05:35.089Z,2.88
2022-09-10T11:08:15.161Z,2.80
2022-09-10T11:11:06.178Z,2.95
2022-09-10T11:13:43.493Z,2.58
2022-09-10T11:16:20.214Z,2.90
2022-09-10T11:19:05.596Z,2.40
2022-09-10T11:21:38.789Z,2.88
2022-09-10T11:24:24.442Z,3.22
2022-09-10T11:27:12.852Z,3.33
2022-09-10T11:30:08.701Z,2.80
2022-09-10T11:33:00.165Z,3.05
2022-09-10T11:35:33.830Z,2.72
2022-09-10T11:38:03.526Z,2.03
2022-09-10T11:40:43.618Z,2.40
2022-09-10T11:43:22.736Z,2.30
2022-09-10T11:46:04.690Z,2.35
2022-09-10T11:48:51.315Z,1.83
2022-09-10T11:51:26.275Z,1.90
2022-09-10T11:53:54.864Z,2.15
2022-09-10T11:56:43.367Z,1.90
2022-09-10T11:59:52.294Z,2.00
2022-09-10T12:02:55.278Z,1.80
2022-09-10T12:05:58.386Z,1.70
2022-09-10T12:08:40.577Z,1.90
2022-09-10T12:11:51.057Z,2.00
2022-09-10T12:14:21.792Z,2.10
2022-09-10T12:16:48.949Z,2.13
2022-09-10T12:19:40.102Z,2.10
2022-09-10T12:22:33.334Z,1.98
2022-09-10T12:25:03.323Z,2.13
2022-09-10T12:27:45.372Z,1.98
2022-09-10T12:30:31.005Z,2.70
2022-09-10T12:33:00.665Z,2.45
2022-09-10T12:35:37.571Z,2.38
2022-09-10T12:38:41.312Z,2.15
2022-09-10T12:41:34.601Z,1.90
2022-09-10T12:44:24.351Z,2.22
2022-09-10T12:47:26.776Z,2.17
2022-09-10T12:49:57.475Z,2.90
2022-09-10T12:52:48.863Z,2.60
2022-09-10T12:55:43.532Z,2.40
2022-09-10T12:58:28.993Z,2.22
2022-09-10T13:00:56.006Z,2.28
2022-09-10T13:03:25.551Z,2.13
2022-09-10T13:05:56.193Z,1.92
2022-09-10T13:08:28.843Z,2.45
2022-09-10T13:10:58.040Z,2.20
2022-09-10T13:13:48.771Z,1.73
2022-09-10T13:16:36.965Z,1.90
2022-09-10T13:19:17.829Z,1.80
2022-09-10T13:21:44.554Z,1.80
2022-09-10T13:24:33.819Z,1.70
2022-09-10T13:27:12.875Z,1.90
2022-09-10T13:30:18.816Z,1.60
2022-09-10T13:33:00.654Z,1.48
2022-09-10T13:35:41.266Z,1.67
2022-09-10T13:38:17.130Z,1.60
2022-09-10T13:41:06.485Z,1.90
2022-09-10T13:44:04.356Z,1.60
2022-09-10T13:46:41.632Z,2.13
2022-09-10T13:49:20.075Z,2.15
2022-09-10T13:51:54.514Z,2.13
2022-09-10T13:54:36.013Z,2.45
2022-09-10T13:57:25.031Z,2.13
2022-09-10T13:59:59.954Z,2.35
2022-09-10T14:02:44.493Z,2.20
2022-09-10T14:05:29.382Z,2.65
2022-09-10T14:07:59.972Z,2.35
2022-09-10T14:10:26.797Z,2.80
2022-09-10T14:12:54.853Z,3.22
2022-09-10T14:15:25.924Z,2.53
2022-09-10T14:18:01.402Z,2.70
2022-09-10T14:20:36.161Z,2.50
2022-09-10T14:23:15.148Z,2.50
2022-09-10T14:25:43.939Z,2.13
2022-09-10T14:28:16.747Z,2.05
2022-09-10T14:30:45.885Z,1.95
2022-09-10T14:33:25.261Z,1.75
2022-09-10T14:35:55.508Z,2.20
2022-09-10T14:38:35.528Z,2.10
2022-09-10T14:41:21.837Z,2.20
2022-09-10T14:44:09.873Z,1.85
2022-09-10T14:46:47.700Z,2.10
2022-09-10T14:49:16.149Z,1.92
2022-09-10T14:51:47.804Z,2.25
2022-09-10T14:54:15.483Z,2.10
2022-09-10T14:56:44.393Z,2.10
2022-09-10T14:59:32.325Z,2.15
2022-09-10T15:02:05.766Z,2.30
2022-09-10T15:04:32.619Z,2.03
2022-09-10T15:07:00.729Z,2.03
2022-09-10T15:09:29.167Z,2.13
2022-09-10T15:12:05.246Z,2.33
2022-09-10T15:14:33.590Z,2.17
2022-09-10T15:17:00.610Z,1.92
2022-09-10T15:19:29.525Z,2.15
2022-09-10T15:21:58.136Z,2.53
2022-09-10T15:24:25.966Z,2.30
2022-09-10T15:26:52.732Z,2.13
2022-09-10T15:29:21.887Z,2.60
2022-09-10T15:31:48.688Z,2.42
2022-09-10T15:34:15.444Z,2.45
2022-09-10T15:36:42.490Z,2.53
2022-09-10T15:39:12.838Z,2.08
2022-09-10T15:41:42.959Z,2.10
2022-09-10T15:44:13.345Z,2.10
2022-09-10T15:46:47.123Z,3.00
2022-09-10T15:49:16.603Z,2.58
2022-09-10T15:51:46.321Z,2.35
2022-09-10T15:54:13.358Z,2.50
2022-09-10T15:56:40.360Z,2.75
2022-09-10T15:59:09.815Z,3.00
2022-09-10T16:01:39.282Z,2.40
2022-09-10T16:04:07.624Z,2.50
2022-09-10T16:06:37.754Z,2.83
2022-09-10T16:09:13.836Z,2.80
2022-09-10T16:11:51.361Z,2.40
2022-09-10T16:14:20.730Z,2.78
2022-09-10T16:16:51.186Z,2.55
2022-09-10T16:19:17.954Z,3.40
2022-09-10T16:21:48.299Z,3.10
2022-09-10T16:24:15.103Z,2.80
2022-09-10T16:26:43.857Z,2.75
2022-09-10T16:29:17.086Z,3.17
2022-09-10T16:31:46.055Z,3.10
2022-09-10T16:34:18.427Z,3.17
2022-09-10T16:36:49.023Z,2.88
2022-09-10T16:39:19.495Z,2.90
2022-09-10T16:41:52.351Z,2.90
2022-09-10T16:44:22.265Z,2.80
2022-09-10T16:46:49.844Z,3.00
2022-09-10T16:49:23.769Z,2.90
2022-09-10T16:51:53.035Z,3.40
2022-09-10T16:54:23.350Z,3.25
2022-09-10T16:56:53.294Z,3.35
2022-09-10T16:59:22.597Z,3.30
2022-09-10T17:01:51.686Z,3.35
2022-09-10T17:04:24.877Z,3.08
2022-09-10T17:06:58.499Z,3.30
2022-09-10T17:09:25.633Z,3.15
2022-09-10T17:11:52.591Z,3.10
2022-09-10T17:14:19.468Z,3.38
2022-09-10T17:16:49.994Z,3.30
2022-09-10T17:19:20.372Z,3.10
2022-09-10T17:21:51.810Z,3.42
2022-09-10T17:26:46.449Z,3.17
2022-09-10T17:29:15.986Z,3.38
2022-09-10T17:31:46.710Z,3.40
2022-09-10T17:34:15.380Z,3.60
2022-09-10T17:36:46.450Z,3.42
2022-09-10T17:39:14.458Z,3.63
2022-09-10T17:41:42.190Z,3.90
2022-09-10T17:44:15.250Z,3.60
2022-09-10T17:46:46.666Z,3.60
2022-09-10T17:49:14.304Z,4.05
2022-09-10T17:51:41.946Z,4.07
2022-09-10T17:54:14.488Z,4.28
2022-09-10T17:56:43.765Z,3.72
2022-09-10T17:59:16.314Z,4.10
2022-09-10T18:01:43.305Z,3.72
2022-09-10T18:04:15.710Z,4.20
2022-09-10T18:06:43.793Z,4.85
2022-09-10T18:09:11.269Z,4.53
2022-09-10T18:11:40.827Z,4.20
2022-09-10T18:14:13.533Z,4.30
2022-09-10T18:16:42.525Z,4.75
2022-09-10T18:19:14.632Z,4.20
2022-09-10T18:21:45.071Z,3.80
2022-09-10T18:24:25.042Z,4.70
2022-09-10T18:26:57.324Z,4.45
2022-09-10T18:29:29.845Z,5.00
2022-09-10T18:31:58.757Z,4.47
2022-09-10T18:34:28.189Z,4.80
2022-09-10T18:36:59.851Z,4.85
2022-09-10T18:39:28.727Z,4.75
2022-09-10T18:42:00.794Z,5.30
2022-09-10T18:44:33.421Z,4.57
2022-09-10T18:47:17.882Z,5.15
2022-09-10T18:49:52.678Z,5.00
2022-09-10T18:52:21.345Z,5.15
2022-09-10T18:54:48.530Z,5.03
2022-09-10T18:57:20.623Z,5.25
2022-09-10T18:59:47.948Z,5.70
2022-09-10T19:02:15.547Z,5.57
2022-09-10T19:05:07.788Z,5.28
2022-09-10T19:07:32.022Z,5.43
2022-09-10T19:10:00.269Z,5.35
2022-09-10T19:12:29.663Z,5.65
2022-09-10T19:14:56.397Z,5.47
2022-09-10T19:17:25.476Z,6.13
2022-09-10T19:19:58.010Z,5.32
2022-09-10T19:22:24.777Z,5.30
2022-09-10T19:24:56.130Z,6.18
2022-09-10T19:27:24.275Z,5.97
2022-09-10T19:29:51.871Z,5.68
2022-09-10T19:32:21.282Z,5.85
2022-09-10T19:34:52.007Z,5.07
2022-09-10T19:37:19.766Z,5.72
2022-09-10T19:39:49.117Z,5.80
2022-09-10T19:42:18.307Z,5.53
2022-09-10T19:44:45.195Z,5.68
2022-09-10T19:47:12.002Z,5.80
2022-09-10T19:49:40.981Z,5.95
2022-09-10T19:52:07.734Z,5.68
2022-09-10T19:54:37.059Z,6.00
2022-09-10T19:57:06.602Z,6.30
2022-09-10T19:59:33.517Z,5.85
2022-09-10T20:02:00.708Z,6.55
2022-09-10T20:04:29.798Z,6.70
2022-09-10T20:06:58.782Z,6.70
2022-09-10T20:09:25.547Z,7.00
2022-09-10T20:11:54.925Z,6.47
2022-09-10T20:14:21.958Z,6.30
2022-09-10T20:16:48.683Z,6.78
2022-09-10T20:19:21.944Z,6.40
2022-09-10T20:21:49.305Z,6.78
2022-09-10T20:24:19.133Z,6.55
2022-09-10T20:26:46.656Z,7.25
2022-09-10T20:29:21.365Z,7.35
2022-09-10T20:31:50.533Z,6.80
2022-09-10T20:34:21.575Z,6.75
2022-09-10T20:36:53.057Z,6.68
2022-09-10T20:41:48.272Z,6.60
2022-09-10T20:44:17.850Z,7.60
2022-09-10T20:46:47.073Z,7.10
2022-09-10T20:49:15.848Z,6.72
2022-09-10T20:51:45.574Z,6.75
2022-09-10T20:54:18.647Z,6.65
2022-09-10T20:56:45.970Z,6.82
2022-09-10T20:59:15.518Z,6.88
2022-09-10T21:01:44.462Z,6.88
2022-09-10T21:04:11.513Z,6.72
2022-09-10T21:06:38.640Z,7.53
2022-09-10T21:09:05.930Z,7.40
2022-09-10T21:11:34.306Z,6.78
2022-09-10T21:14:03.574Z,7.55
2022-09-10T21:16:35.836Z,8.18
2022-09-10T21:19:11.168Z,8.40
2022-09-10T21:21:41.575Z,9.57
2022-09-10T21:24:14.640Z,7.15
2022-09-10T21:26:43.263Z,9.30
2022-09-10T21:29:19.433Z,9.27
2022-09-10T21:31:47.414Z,9.15
2022-09-10T21:34:17.496Z,9.65
2022-09-10T21:36:46.437Z,10.27
2022-09-10T21:39:15.591Z,9.80
2022-09-10T21:41:45.448Z,9.80
2022-09-10T21:44:20.994Z,8.98
2022-09-10T21:46:48.982Z,11.95
2022-09-10T21:49:16.308Z,10.40
2022-09-10T21:51:45.688Z,10.63
2022-09-10T21:54:24.238Z,10.38
2022-09-10T21:56:52.004Z,10.73
2022-09-10T21:59:22.225Z,10.85
2022-09-10T22:01:49.453Z,12.02
2022-09-10T22:04:22.564Z,11.55
2022-09-10T22:06:54.321Z,11.80
2022-09-10T22:09:24.488Z,11.70
2022-09-10T22:11:54.251Z,11.32
2022-09-10T22:14:24.430Z,12.70
2022-09-10T22:16:54.048Z,11.40
2022-09-10T22:19:27.336Z,12.00
2022-09-10T22:21:57.349Z,10.95
2022-09-10T22:24:29.352Z,11.65
2022-09-10T22:26:59.292Z,12.13
2022-09-10T22:29:26.235Z,11.43
2022-09-10T22:31:53.005Z,13.40
2022-09-10T22:34:20.883Z,12.70
2022-09-10T22:36:49.289Z,12.02
2022-09-10T22:39:23.155Z,12.30
2022-09-10T22:41:51.314Z,12.20
2022-09-10T22:44:19.262Z,11.48
2022-09-10T22:46:48.596Z,12.80
2022-09-10T22:49:19.804Z,18.33
2022-09-10T22:51:46.674Z,16.83
2022-09-10T22:54:17.402Z,15.88
2022-09-10T22:56:46.376Z,17.30
2022-09-10T22:59:14.728Z,14.02
2022-09-10T23:01:43.327Z,15.25
2022-09-10T23:04:12.545Z,14.77
2022-09-10T23:06:41.857Z,13.75
2022-09-10T23:09:13.775Z,15.95
2022-09-10T23:11:44.613Z,15.38
2022-09-10T23:14:17.736Z,15.80
2022-09-10T23:16:48.462Z,14.75
2022-09-10T23:19:19.132Z,15.93
2022-09-10T23:21:51.522Z,16.20
2022-09-10T23:24:21.920Z,15.82
2022-09-10T23:26:51.753Z,15.82
2022-09-10T23:29:23.938Z,15.02
2022-09-10T23:31:54.347Z,15.98
2022-09-10T23:34:22.246Z,16.00
2022-09-10T23:36:49.496Z,15.90
2022-09-10T23:39:24.383Z,16.67
2022-09-10T23:41:53.810Z,16.63
2022-09-10T23:44:24.296Z,15.38
2022-09-10T23:46:51.228Z,15.50
2022-09-10T23:49:18.146Z,15.68
2022-09-10T23:51:47.583Z,15.40
2022-09-10T23:54:16.596Z,14.60
2022-09-10T23:56:43.803Z,16.10
2022-09-10T23:59:11.488Z,14.38
